createdAt,value
2022-08-17T00:00:42.830Z,18.60
2022-08-17T00:03:10.313Z,18.60
2022-08-17T00:05:42.816Z,18.60
2022-08-17T00:08:11.197Z,18.60
2022-08-17T00:10:42.156Z,18.60
2022-08-17T00:13:13.498Z,18.60
2022-08-17T00:15:42.085Z,18.60
2022-08-17T00:19:01.627Z,18.60
2022-08-17T00:21:04.261Z,18.50
2022-08-17T00:23:39.601Z,18.50
2022-08-17T00:26:43.477Z,18.40
2022-08-17T00:29:07.077Z,18.40
2022-08-17T00:31:36.767Z,18.40
2022-08-17T00:34:06.261Z,18.40
2022-08-17T00:36:34.599Z,18.40
2022-08-17T00:39:03.047Z,18.40
2022-08-17T00:41:32.857Z,18.40
2022-08-17T00:44:04.286Z,18.30
2022-08-17T00:46:36.168Z,18.30
2022-08-17T00:49:05.918Z,18.30
2022-08-17T00:51:38.948Z,18.30
2022-08-17T00:54:12.191Z,18.30
2022-08-17T00:56:45.868Z,18.30
2022-08-17T00:59:18.647Z,18.30
2022-08-17T01:01:49.117Z,18.20
2022-08-17T01:04:18.567Z,18.20
2022-08-17T01:06:49.464Z,18.20
2022-08-17T01:09:19.061Z,18.20
2022-08-17T01:11:52.386Z,18.20
2022-08-17T01:14:21.575Z,18.10
2022-08-17T01:16:51.326Z,18.10
2022-08-17T01:19:28.819Z,18.00
2022-08-17T01:22:02.398Z,18.00
2022-08-17T01:24:33.690Z,18.00
2022-08-17T01:27:02.898Z,18.00
2022-08-17T01:29:42.287Z,17.90
2022-08-17T01:32:13.938Z,17.90
2022-08-17T01:34:43.933Z,17.90
2022-08-17T01:37:21.347Z,17.80
2022-08-17T01:39:55.313Z,17.80
2022-08-17T01:42:30.785Z,17.80
2022-08-17T01:45:03.155Z,17.80
2022-08-17T01:47:31.874Z,17.70
2022-08-17T01:50:10.741Z,17.70
2022-08-17T01:52:39.574Z,17.60
2022-08-17T01:55:10.598Z,17.50
2022-08-17T01:57:39.216Z,17.50
2022-08-17T02:00:11.216Z,17.50
2022-08-17T02:02:39.838Z,17.50
2022-08-17T02:05:09.166Z,17.40
2022-08-17T02:08:00.085Z,17.40
2022-08-17T02:10:34.007Z,17.30
2022-08-17T02:13:03.297Z,17.30
2022-08-17T02:15:32.071Z,17.30
2022-08-17T02:18:00.767Z,17.30
2022-08-17T02:20:41.253Z,17.30
2022-08-17T02:23:13.047Z,17.20
2022-08-17T02:25:48.846Z,17.20
2022-08-17T02:28:17.519Z,17.20
2022-08-17T02:31:01.156Z,17.10
2022-08-17T02:33:43.239Z,17.10
2022-08-17T02:36:12.906Z,17.10
2022-08-17T02:38:42.383Z,17.10
2022-08-17T02:41:12.714Z,17.00
2022-08-17T02:43:41.238Z,17.00
2022-08-17T02:46:09.934Z,17.00
2022-08-17T02:48:38.416Z,17.00
2022-08-17T02:51:07.017Z,17.00
2022-08-17T02:53:35.987Z,16.90
2022-08-17T02:56:05.634Z,16.90
2022-08-17T02:58:36.144Z,16.90
2022-08-17T03:01:08.811Z,16.90
2022-08-17T03:03:38.231Z,16.90
2022-08-17T03:06:07.900Z,16.80
2022-08-17T03:08:36.524Z,16.80
2022-08-17T03:11:04.943Z,16.80
2022-08-17T03:13:34.984Z,16.80
2022-08-17T03:16:06.464Z,16.70
2022-08-17T03:18:34.842Z,16.70
2022-08-17T03:21:04.862Z,16.70
2022-08-17T03:23:33.821Z,16.70
2022-08-17T03:26:02.556Z,16.70
2022-08-17T03:28:30.954Z,16.60
2022-08-17T03:31:00.666Z,16.60
2022-08-17T03:33:28.937Z,16.60
2022-08-17T03:35:57.826Z,16.60
2022-08-17T03:38:26.226Z,16.50
2022-08-17T03:40:59.362Z,16.50
2022-08-17T03:43:31.663Z,16.50
2022-08-17T03:46:28.201Z,16.50
2022-08-17T03:49:20.178Z,16.40
2022-08-17T03:52:06.047Z,16.40
2022-08-17T03:54:51.806Z,16.40
2022-08-17T03:57:20.638Z,16.30
2022-08-17T03:59:49.525Z,16.30
2022-08-17T04:02:22.618Z,16.30
2022-08-17T04:04:52.455Z,16.30
2022-08-17T04:07:21.664Z,16.30
2022-08-17T04:09:50.425Z,16.30
2022-08-17T04:12:20.775Z,16.30
2022-08-17T04:14:52.658Z,16.30
2022-08-17T04:17:25.574Z,16.30
2022-08-17T04:19:57.567Z,16.30
2022-08-17T04:22:30.009Z,16.30
2022-08-17T04:25:04.161Z,16.30
2022-08-17T04:27:32.558Z,16.30
2022-08-17T04:30:00.870Z,16.40
2022-08-17T04:33:03.523Z,16.40
2022-08-17T04:35:21.434Z,16.40
2022-08-17T04:37:49.877Z,16.50
2022-08-17T04:40:37.164Z,16.50
2022-08-17T04:43:07.994Z,16.50
2022-08-17T04:45:40.704Z,16.60
2022-08-17T04:48:35.246Z,16.60
2022-08-17T04:51:08.364Z,16.70
2022-08-17T04:53:36.775Z,16.70
2022-08-17T04:56:05.778Z,16.80
2022-08-17T04:58:34.379Z,16.80
2022-08-17T05:01:02.821Z,16.90
2022-08-17T05:03:33.066Z,16.90
2022-08-17T05:06:01.938Z,17.00
2022-08-17T05:08:30.466Z,17.00
2022-08-17T05:10:58.786Z,17.10
2022-08-17T05:13:29.759Z,17.10
2022-08-17T05:16:00.225Z,17.20
2022-08-17T05:18:30.202Z,17.30
2022-08-17T05:20:59.948Z,17.40
2022-08-17T05:23:41.552Z,17.50
2022-08-17T05:26:17.949Z,17.60
2022-08-17T05:28:55.216Z,17.80
2022-08-17T05:31:25.717Z,17.90
2022-08-17T05:33:54.510Z,18.00
2022-08-17T05:36:41.707Z,18.00
2022-08-17T05:39:16.563Z,18.10
2022-08-17T05:41:46.850Z,18.20
2022-08-17T05:44:15.275Z,18.20
2022-08-17T05:46:49.154Z,18.20
2022-08-17T05:49:23.787Z,18.30
2022-08-17T05:52:08.080Z,18.30
2022-08-17T05:54:48.437Z,18.40
2022-08-17T05:57:53.285Z,18.40
2022-08-17T06:00:30.516Z,18.50
2022-08-17T06:03:27.347Z,18.70
2022-08-17T06:06:14.711Z,18.90
2022-08-17T06:08:51.988Z,19.10
2022-08-17T06:11:29.799Z,19.30
2022-08-17T06:14:11.037Z,19.50
2022-08-17T06:16:44.008Z,19.60
2022-08-17T06:19:18.567Z,19.70
2022-08-17T06:21:51.748Z,19.90
2022-08-17T06:24:29.197Z,20.10
2022-08-17T06:27:02.748Z,20.30
2022-08-17T06:29:39.075Z,20.50
2022-08-17T06:32:12.733Z,20.70
2022-08-17T06:34:43.737Z,21.10
2022-08-17T06:37:55.680Z,21.50
2022-08-17T06:40:46.068Z,21.90
2022-08-17T06:43:32.734Z,22.30
2022-08-17T06:46:11.562Z,22.70
2022-08-17T06:48:46.839Z,23.00
2022-08-17T06:51:22.244Z,23.20
2022-08-17T06:53:59.613Z,23.30
2022-08-17T06:56:53.458Z,23.30
2022-08-17T06:59:54.198Z,23.70
2022-08-17T07:02:29.208Z,24.10
2022-08-17T07:05:14.384Z,24.30
2022-08-17T07:08:04.373Z,24.50
2022-08-17T07:10:44.737Z,24.20
2022-08-17T07:13:30.762Z,24.00
2022-08-17T07:16:08.665Z,24.00
2022-08-17T07:18:37.525Z,24.00
2022-08-17T07:21:17.348Z,24.20
2022-08-17T07:24:01.936Z,24.30
2022-08-17T07:26:30.788Z,24.10
2022-08-17T07:29:02.452Z,24.20
2022-08-17T07:31:34.008Z,24.10
2022-08-17T07:34:08.044Z,24.10
2022-08-17T07:36:36.521Z,24.10
2022-08-17T07:39:06.257Z,24.20
2022-08-17T07:41:57.360Z,24.50
2022-08-17T07:44:29.316Z,24.90
2022-08-17T07:47:15.938Z,25.30
2022-08-17T07:49:46.336Z,25.70
2022-08-17T07:52:51.008Z,25.60
2022-08-17T07:55:30.963Z,25.50
2022-08-17T07:58:00.938Z,25.60
2022-08-17T08:00:33.056Z,25.60
2022-08-17T08:03:12.505Z,25.80
2022-08-17T08:05:51.293Z,25.60
2022-08-17T08:08:28.199Z,25.60
2022-08-17T08:11:03.946Z,25.70
2022-08-17T08:13:33.425Z,26.10
2022-08-17T08:16:25.542Z,26.30
2022-08-17T08:18:57.748Z,26.30
2022-08-17T08:21:36.602Z,26.10
2022-08-17T08:24:20.037Z,26.20
2022-08-17T08:26:58.145Z,26.00
2022-08-17T08:29:36.305Z,26.10
2022-08-17T08:32:16.494Z,26.30
2022-08-17T08:35:02.756Z,26.50
2022-08-17T08:37:43.626Z,26.60
2022-08-17T08:40:30.115Z,26.70
2022-08-17T08:43:08.440Z,26.80
2022-08-17T08:45:45.257Z,27.00
2022-08-17T08:48:53.226Z,26.80
2022-08-17T08:51:28.050Z,26.90
2022-08-17T08:54:02.637Z,26.90
2022-08-17T08:56:38.370Z,27.10
2022-08-17T08:59:17.447Z,27.30
2022-08-17T09:01:57.362Z,27.60
2022-08-17T09:05:12.465Z,28.10
2022-08-17T09:07:40.475Z,28.80
2022-08-17T09:10:18.506Z,29.00
2022-08-17T09:12:54.664Z,29.30
2022-08-17T09:15:29.177Z,29.50
2022-08-17T09:18:59.112Z,29.60
2022-08-17T09:21:00.082Z,29.40
2022-08-17T09:23:35.040Z,29.60
2022-08-17T09:26:08.476Z,30.00
2022-08-17T09:28:39.864Z,30.20
2022-08-17T09:31:11.260Z,29.60
2022-08-17T09:33:45.656Z,29.70
2022-08-17T09:36:22.136Z,29.90
2022-08-17T09:38:58.789Z,30.00
2022-08-17T09:41:34.624Z,30.30
2022-08-17T09:44:23.199Z,30.60
2022-08-17T09:46:56.999Z,31.00
2022-08-17T09:49:31.134Z,31.20
2022-08-17T09:52:08.760Z,31.20
2022-08-17T09:54:40.961Z,31.30
2022-08-17T09:57:31.795Z,31.60
2022-08-17T10:00:20.117Z,31.30
2022-08-17T10:03:24.223Z,30.90
2022-08-17T10:06:02.238Z,30.90
2022-08-17T10:08:44.479Z,31.00
2022-08-17T10:11:33.462Z,31.10
2022-08-17T10:14:36.415Z,30.90
2022-08-17T10:17:09.038Z,30.80
2022-08-17T10:19:44.157Z,30.80
2022-08-17T10:22:54.953Z,31.00
2022-08-17T10:26:00.057Z,31.00
2022-08-17T10:28:38.133Z,30.70
2022-08-17T10:31:33.849Z,30.40
2022-08-17T10:34:24.926Z,30.50
2022-08-17T10:36:59.873Z,30.50
2022-08-17T10:39:52.383Z,30.40
2022-08-17T10:42:32.811Z,30.50
2022-08-17T10:45:08.224Z,30.70
2022-08-17T10:48:04.652Z,30.70
2022-08-17T10:51:00.274Z,30.80
2022-08-17T10:53:54.468Z,31.00
2022-08-17T10:56:25.855Z,31.00
2022-08-17T10:58:57.845Z,31.30
2022-08-17T11:02:05.495Z,31.30
2022-08-17T11:04:48.427Z,31.30
2022-08-17T11:07:29.364Z,31.40
2022-08-17T11:10:17.410Z,31.50
2022-08-17T11:12:54.565Z,31.50
2022-08-17T11:15:35.294Z,31.50
2022-08-17T11:18:22.262Z,31.20
2022-08-17T11:21:17.951Z,31.30
2022-08-17T11:24:14.924Z,31.40
2022-08-17T11:26:48.964Z,31.50
2022-08-17T11:29:24.653Z,31.50
2022-08-17T11:32:06.124Z,31.30
2022-08-17T11:34:35.228Z,31.10
2022-08-17T11:37:30.833Z,31.00
2022-08-17T11:40:27.573Z,30.80
2022-08-17T11:43:15.473Z,30.40
2022-08-17T11:46:04.303Z,30.00
2022-08-17T11:48:59.446Z,29.80
2022-08-17T11:51:56.003Z,29.70
2022-08-17T11:54:46.313Z,29.60
2022-08-17T11:58:00.256Z,29.50
2022-08-17T12:00:58.214Z,29.60
2022-08-17T12:03:53.953Z,29.70
2022-08-17T12:06:32.971Z,29.80
2022-08-17T12:09:10.246Z,30.00
2022-08-17T12:11:55.576Z,30.00
2022-08-17T12:15:05.640Z,30.10
2022-08-17T12:17:40.577Z,30.10
2022-08-17T12:20:16.410Z,30.30
2022-08-17T12:22:54.927Z,30.40
2022-08-17T12:25:31.480Z,30.40
2022-08-17T12:28:05.463Z,30.60
2022-08-17T12:30:37.900Z,30.40
2022-08-17T12:33:25.341Z,30.50
2022-08-17T12:36:04.027Z,30.50
2022-08-17T12:38:34.829Z,30.50
2022-08-17T12:41:25.550Z,30.30
2022-08-17T12:44:02.300Z,30.10
2022-08-17T12:46:36.093Z,30.00
2022-08-17T12:49:23.285Z,29.90
2022-08-17T12:51:58.971Z,29.80
2022-08-17T12:54:33.742Z,29.70
2022-08-17T12:57:07.282Z,29.60
2022-08-17T12:59:40.982Z,29.50
2022-08-17T13:02:20.541Z,29.40
2022-08-17T13:04:55.908Z,29.40
2022-08-17T13:07:32.648Z,29.30
2022-08-17T13:10:02.415Z,29.30
2022-08-17T13:12:34.762Z,29.30
2022-08-17T13:15:04.122Z,29.30
2022-08-17T13:17:37.182Z,29.20
2022-08-17T13:20:07.491Z,29.20
2022-08-17T13:22:37.930Z,29.10
2022-08-17T13:25:09.477Z,29.10
2022-08-17T13:27:43.219Z,29.10
2022-08-17T13:30:14.965Z,29.10
2022-08-17T13:32:48.943Z,29.20
2022-08-17T13:35:45.874Z,29.30
2022-08-17T13:38:40.700Z,29.30
2022-08-17T13:41:09.352Z,29.60
2022-08-17T13:43:45.712Z,29.70
2022-08-17T13:46:20.833Z,29.70
2022-08-17T13:48:59.432Z,29.80
2022-08-17T13:51:37.742Z,29.80
2022-08-17T13:54:20.563Z,29.70
2022-08-17T13:57:03.935Z,29.70
2022-08-17T13:59:54.851Z,29.60
2022-08-17T14:02:25.911Z,29.70
2022-08-17T14:04:57.621Z,29.80
2022-08-17T14:07:37.405Z,29.80
2022-08-17T14:10:12.381Z,29.90
2022-08-17T14:12:43.012Z,30.00
2022-08-17T14:15:13.316Z,30.00
2022-08-17T14:17:41.894Z,30.00
2022-08-17T14:20:13.294Z,29.90
2022-08-17T14:22:46.337Z,29.90
2022-08-17T14:25:18.727Z,29.90
2022-08-17T14:27:52.936Z,30.00
2022-08-17T14:30:25.055Z,30.10
2022-08-17T14:32:54.795Z,30.10
2022-08-17T14:35:24.543Z,30.20
2022-08-17T14:37:54.188Z,30.30
2022-08-17T14:40:25.716Z,30.40
2022-08-17T14:42:56.281Z,30.70
2022-08-17T14:45:31.791Z,30.90
2022-08-17T14:48:05.787Z,31.00
2022-08-17T14:50:35.310Z,31.10
2022-08-17T14:53:05.833Z,30.90
2022-08-17T14:55:40.066Z,30.60
2022-08-17T14:58:08.912Z,30.30
2022-08-17T15:00:40.996Z,30.10
2022-08-17T15:03:09.524Z,30.10
2022-08-17T15:05:39.606Z,30.00
2022-08-17T15:08:08.705Z,30.00
2022-08-17T15:10:39.904Z,29.80
2022-08-17T15:13:18.209Z,29.70
2022-08-17T15:15:47.046Z,29.60
2022-08-17T15:18:16.287Z,29.60
2022-08-17T15:20:45.999Z,29.50
2022-08-17T15:23:15.557Z,29.50
2022-08-17T15:25:45.851Z,29.60
2022-08-17T15:28:14.316Z,29.50
2022-08-17T15:30:44.903Z,29.80
2022-08-17T15:33:17.584Z,30.20
2022-08-17T15:35:46.560Z,30.60
2022-08-17T15:38:15.132Z,30.70
2022-08-17T15:40:46.987Z,31.00
2022-08-17T15:43:21.072Z,31.30
2022-08-17T15:46:10.560Z,31.30
2022-08-17T15:48:43.760Z,30.70
2022-08-17T15:51:14.969Z,30.30
2022-08-17T15:53:45.040Z,29.90
2022-08-17T15:56:15.501Z,29.60
2022-08-17T15:58:46.732Z,29.40
2022-08-17T16:01:27.882Z,29.40
2022-08-17T16:04:26.863Z,29.50
2022-08-17T16:06:54.727Z,29.90
2022-08-17T16:09:23.398Z,30.40
2022-08-17T16:11:55.651Z,30.50
2022-08-17T16:14:24.598Z,30.60
2022-08-17T16:17:00.856Z,30.50
2022-08-17T16:19:29.216Z,30.40
2022-08-17T16:21:57.758Z,30.20
2022-08-17T16:24:26.367Z,29.90
2022-08-17T16:26:57.061Z,29.80
2022-08-17T16:29:25.642Z,29.60
2022-08-17T16:31:54.687Z,29.50
2022-08-17T16:34:23.516Z,29.40
2022-08-17T16:36:56.096Z,29.40
2022-08-17T16:39:26.786Z,29.40
2022-08-17T16:41:57.185Z,29.40
2022-08-17T16:44:27.515Z,29.30
2022-08-17T16:46:56.165Z,29.20
2022-08-17T16:49:37.267Z,29.20
2022-08-17T16:52:10.078Z,29.10
2022-08-17T16:54:41.923Z,29.10
2022-08-17T16:57:12.348Z,29.10
2022-08-17T16:59:44.962Z,29.10
2022-08-17T17:02:17.659Z,29.10
2022-08-17T17:04:54.026Z,29.10
2022-08-17T17:07:41.126Z,29.00
2022-08-17T17:10:12.369Z,29.00
2022-08-17T17:13:02.248Z,29.00
2022-08-17T17:15:51.888Z,28.90
2022-08-17T17:18:24.507Z,29.00
2022-08-17T17:20:57.427Z,28.90
2022-08-17T17:23:54.419Z,28.90
2022-08-17T17:26:44.009Z,28.80
2022-08-17T17:29:26.493Z,28.80
2022-08-17T17:32:05.856Z,28.70
2022-08-17T17:34:35.896Z,28.60
2022-08-17T17:37:10.042Z,28.60
2022-08-17T17:39:44.128Z,28.50
2022-08-17T17:42:16.690Z,28.40
2022-08-17T17:44:56.669Z,28.30
2022-08-17T17:47:25.428Z,28.30
2022-08-17T17:49:53.895Z,28.20
2022-08-17T17:52:28.492Z,28.10
2022-08-17T17:55:08.656Z,28.00
2022-08-17T17:57:47.605Z,27.90
2022-08-17T18:00:23.686Z,27.80
2022-08-17T18:03:12.463Z,27.70
2022-08-17T18:05:54.142Z,27.60
2022-08-17T18:08:48.067Z,27.40
2022-08-17T18:11:35.050Z,27.30
2022-08-17T18:14:15.628Z,27.20
2022-08-17T18:16:48.190Z,27.00
2022-08-17T18:19:20.465Z,26.90
2022-08-17T18:21:52.528Z,26.60
2022-08-17T18:24:30.997Z,26.50
2022-08-17T18:27:01.486Z,26.30
2022-08-17T18:29:41.089Z,26.30
2022-08-17T18:32:36.066Z,26.10
2022-08-17T18:35:36.753Z,26.00
2022-08-17T18:38:22.576Z,25.90
2022-08-17T18:41:04.306Z,25.80
2022-08-17T18:43:44.275Z,25.80
2022-08-17T18:46:30.088Z,25.70
2022-08-17T18:49:02.547Z,25.60
2022-08-17T18:51:41.493Z,25.50
2022-08-17T18:54:17.916Z,25.40
2022-08-17T18:56:52.353Z,25.30
2022-08-17T18:59:32.816Z,25.30
2022-08-17T19:02:43.358Z,25.10
2022-08-17T19:05:26.544Z,25.00
2022-08-17T19:07:55.498Z,24.90
2022-08-17T19:10:29.367Z,24.90
2022-08-17T19:13:12.177Z,24.90
2022-08-17T19:15:46.473Z,24.80
2022-08-17T19:18:39.652Z,24.80
2022-08-17T19:21:13.213Z,24.80
2022-08-17T19:23:53.698Z,24.70
2022-08-17T19:26:54.479Z,24.70
2022-08-17T19:29:22.186Z,24.60
2022-08-17T19:31:51.483Z,24.50
2022-08-17T19:34:30.220Z,24.50
2022-08-17T19:37:09.074Z,24.40
2022-08-17T19:39:49.261Z,24.30
2022-08-17T19:42:31.124Z,24.30
2022-08-17T19:45:05.423Z,24.20
2022-08-17T19:47:55.189Z,24.10
2022-08-17T19:50:39.180Z,24.10
2022-08-17T19:53:21.485Z,24.00
2022-08-17T19:55:58.745Z,23.90
2022-08-17T19:58:39.546Z,23.90
2022-08-17T20:01:13.551Z,23.80
2022-08-17T20:03:52.088Z,23.70
2022-08-17T20:06:22.646Z,23.70
2022-08-17T20:08:59.400Z,23.60
2022-08-17T20:11:34.594Z,23.50
2022-08-17T20:14:08.105Z,23.50
2022-08-17T20:16:36.645Z,23.40
2022-08-17T20:19:09.129Z,23.30
2022-08-17T20:21:43.013Z,23.30
2022-08-17T20:24:27.003Z,23.20
2022-08-17T20:26:59.287Z,23.10
2022-08-17T20:29:39.551Z,23.10
2022-08-17T20:32:26.776Z,23.00
2022-08-17T20:35:26.175Z,23.00
2022-08-17T20:38:02.072Z,22.90
2022-08-17T20:40:38.529Z,22.80
2022-08-17T20:43:44.086Z,22.70
2022-08-17T20:46:26.826Z,22.70
2022-08-17T20:48:59.317Z,22.60
2022-08-17T20:51:32.183Z,22.60
2022-08-17T20:54:28.704Z,22.60
2022-08-17T20:57:01.153Z,22.50
2022-08-17T20:59:59.455Z,22.40
2022-08-17T21:02:29.865Z,22.40
2022-08-17T21:05:08.098Z,22.40
2022-08-17T21:07:55.767Z,22.30
2022-08-17T21:10:35.718Z,22.20
2022-08-17T21:13:39.254Z,22.20
2022-08-17T21:16:33.925Z,22.10
2022-08-17T21:19:17.024Z,22.10
2022-08-17T21:21:54.450Z,22.00
2022-08-17T21:24:34.196Z,22.00
2022-08-17T21:27:11.604Z,22.00
2022-08-17T21:30:13.686Z,22.00
2022-08-17T21:32:45.298Z,22.00
2022-08-17T21:35:30.186Z,21.90
2022-08-17T21:38:05.154Z,21.90
2022-08-17T21:40:35.147Z,21.90
2022-08-17T21:43:18.697Z,21.90
2022-08-17T21:45:57.693Z,21.90
2022-08-17T21:48:29.373Z,21.80
2022-08-17T21:51:01.068Z,21.80
2022-08-17T21:53:36.496Z,21.80
2022-08-17T21:56:05.646Z,21.80
2022-08-17T21:58:36.668Z,21.80
2022-08-17T22:01:14.756Z,21.80
2022-08-17T22:03:47.465Z,21.70
2022-08-17T22:06:25.576Z,21.60
2022-08-17T22:09:02.877Z,21.60
2022-08-17T22:11:31.689Z,21.50
2022-08-17T22:14:05.235Z,21.50
2022-08-17T22:16:34.886Z,21.40
2022-08-17T22:19:06.655Z,21.40
2022-08-17T22:21:35.196Z,21.30
2022-08-17T22:24:06.901Z,21.30
2022-08-17T22:27:03.286Z,21.30
2022-08-17T22:29:57.457Z,21.20
2022-08-17T22:32:40.897Z,21.20
2022-08-17T22:35:32.865Z,21.10
2022-08-17T22:38:27.171Z,21.10
2022-08-17T22:40:57.969Z,21.00
2022-08-17T22:43:29.868Z,21.00
2022-08-17T22:46:01.817Z,21.00
2022-08-17T22:48:31.561Z,20.90
2022-08-17T22:51:13.394Z,20.90
2022-08-17T22:54:05.337Z,20.80
2022-08-17T22:56:51.555Z,20.80
2022-08-17T22:59:38.091Z,20.80
2022-08-17T23:02:22.243Z,20.70
2022-08-17T23:04:53.049Z,20.70
2022-08-17T23:07:23.146Z,20.60
2022-08-17T23:09:54.658Z,20.50
2022-08-17T23:12:27.471Z,20.50
2022-08-17T23:15:01.708Z,20.40
2022-08-17T23:17:36.935Z,20.40
2022-08-17T23:20:08.559Z,20.30
2022-08-17T23:22:52.486Z,20.30
2022-08-17T23:25:29.008Z,20.30
2022-08-17T23:28:01.321Z,20.30
2022-08-17T23:30:30.484Z,20.20
2022-08-17T23:33:01.302Z,20.20
2022-08-17T23:35:40.080Z,20.20
2022-08-17T23:38:12.053Z,20.20
2022-08-17T23:40:41.748Z,20.10
2022-08-17T23:43:23.457Z,20.10
2022-08-17T23:45:52.360Z,20.00
2022-08-17T23:48:33.028Z,20.00
2022-08-17T23:51:09.839Z,20.00
2022-08-17T23:53:42.837Z,19.90
2022-08-17T23:56:11.799Z,19.90
2022-08-17T23:58:42.587Z,19.90
